sensor_id;sensor_type;location;lat;lon;timestamp;pressure;altitude;pressure_sealevel;temperature;humidity
37878;BME280;23715;53.652;8.516;2022-10-16T00:00:14;100953.80;;;16.84;100.00
37878;BME280;23715;53.652;8.516;2022-10-16T00:05:14;100953.44;;;17.00;100.00
37878;BME280;23715;53.652;8.516;2022-10-16T00:10:15;100946.15;;;16.92;100.00
37878;BME280;23715;53.652;8.516;2022-10-16T00:15:15;100943.44;;;17.04;100.00
37878;BME280;23715;53.652;8.516;2022-10-16T00:20:15;100945.45;;;17.23;100.00
37878;BME280;23715;53.652;8.516;2022-10-16T00:25:16;100940.56;;;17.02;100.00
37878;BME280;23715;53.652;8.516;2022-10-16T00:30:15;100942.95;;;16.92;100.00
37878;BME280;23715;53.652;8.516;2022-10-16T00:35:16;100944.12;;;16.86;100.00
37878;BME280;23715;53.652;8.516;2022-10-16T00:40:16;100947.52;;;17.00;100.00
37878;BME280;23715;53.652;8.516;2022-10-16T00:45:17;100948.72;;;17.02;100.00
37878;BME280;23715;53.652;8.516;2022-10-16T00:50:31;100944.64;;;16.85;100.00
37878;BME280;23715;53.652;8.516;2022-10-16T00:55:32;100948.52;;;17.03;100.00
37878;BME280;23715;53.652;8.516;2022-10-16T01:00:33;100948.70;;;16.77;100.00
37878;BME280;23715;53.652;8.516;2022-10-16T01:05:43;100961.41;;;16.72;100.00
37878;BME280;23715;53.652;8.516;2022-10-16T01:10:47;100959.23;;;16.84;100.00
37878;BME280;23715;53.652;8.516;2022-10-16T01:16:05;100957.69;;;16.73;100.00
37878;BME280;23715;53.652;8.516;2022-10-16T01:21:04;100955.34;;;16.91;100.00
37878;BME280;23715;53.652;8.516;2022-10-16T01:31:46;100973.13;;;16.52;100.00
37878;BME280;23715;53.652;8.516;2022-10-16T01:36:50;100964.62;;;16.64;100.00
37878;BME280;23715;53.652;8.516;2022-10-16T01:41:54;100965.98;;;16.59;100.00
37878;BME280;23715;53.652;8.516;2022-10-16T01:46:54;100969.25;;;16.88;100.00
37878;BME280;23715;53.652;8.516;2022-10-16T01:51:57;100960.56;;;16.80;100.00
37878;BME280;23715;53.652;8.516;2022-10-16T01:56:59;100973.77;;;16.50;100.00
37878;BME280;23715;53.652;8.516;2022-10-16T02:02:03;100968.87;;;16.78;100.00
37878;BME280;23715;53.652;8.516;2022-10-16T02:07:03;100962.27;;;16.52;100.00
37878;BME280;23715;53.652;8.516;2022-10-16T02:12:09;100964.11;;;16.56;100.00
37878;BME280;23715;53.652;8.516;2022-10-16T02:17:16;100967.34;;;16.51;100.00
37878;BME280;23715;53.652;8.516;2022-10-16T02:22:20;100972.28;;;16.60;100.00
37878;BME280;23715;53.652;8.516;2022-10-16T02:32:55;100969.05;;;16.56;100.00
37878;BME280;23715;53.652;8.516;2022-10-16T02:37:58;100974.44;;;16.36;100.00
37878;BME280;23715;53.652;8.516;2022-10-16T02:42:59;100964.75;;;16.29;100.00
37878;BME280;23715;53.652;8.516;2022-10-16T02:47:59;100971.52;;;16.17;100.00
37878;BME280;23715;53.652;8.516;2022-10-16T02:53:00;100968.97;;;16.24;100.00
37878;BME280;23715;53.652;8.516;2022-10-16T02:58:00;100969.02;;;16.32;100.00
37878;BME280;23715;53.652;8.516;2022-10-16T03:03:00;100965.58;;;16.26;100.00
37878;BME280;23715;53.652;8.516;2022-10-16T03:08:00;100968.75;;;16.05;100.00
37878;BME280;23715;53.652;8.516;2022-10-16T03:12:59;100972.03;;;16.20;100.00
37878;BME280;23715;53.652;8.516;2022-10-16T03:18:00;100969.48;;;16.19;100.00
37878;BME280;23715;53.652;8.516;2022-10-16T03:22:59;100973.08;;;16.28;100.00
37878;BME280;23715;53.652;8.516;2022-10-16T03:28:01;100973.60;;;16.39;100.00
37878;BME280;23715;53.652;8.516;2022-10-16T03:33:02;100974.80;;;16.57;100.00
37878;BME280;23715;53.652;8.516;2022-10-16T03:38:02;100971.41;;;16.51;100.00
37878;BME280;23715;53.652;8.516;2022-10-16T03:43:03;100969.37;;;16.57;100.00
37878;BME280;23715;53.652;8.516;2022-10-16T03:48:03;100978.92;;;16.07;100.00
37878;BME280;23715;53.652;8.516;2022-10-16T03:53:04;100978.92;;;16.07;100.00
37878;BME280;23715;53.652;8.516;2022-10-16T03:58:04;100991.55;;;16.24;100.00
37878;BME280;23715;53.652;8.516;2022-10-16T04:03:04;100997.97;;;16.19;100.00
37878;BME280;23715;53.652;8.516;2022-10-16T04:08:05;100996.08;;;16.07;100.00
37878;BME280;23715;53.652;8.516;2022-10-16T04:13:05;101009.35;;;16.23;100.00
37878;BME280;23715;53.652;8.516;2022-10-16T04:18:05;101016.13;;;16.23;100.00
37878;BME280;23715;53.652;8.516;2022-10-16T04:23:06;101020.88;;;16.20;100.00
37878;BME280;23715;53.652;8.516;2022-10-16T04:28:06;101029.77;;;16.47;100.00
37878;BME280;23715;53.652;8.516;2022-10-16T04:33:09;101025.19;;;16.48;100.00
37878;BME280;23715;53.652;8.516;2022-10-16T04:38:09;101025.93;;;16.11;100.00
37878;BME280;23715;53.652;8.516;2022-10-16T04:43:10;101033.16;;;16.45;100.00
37878;BME280;23715;53.652;8.516;2022-10-16T04:48:10;101017.50;;;16.31;100.00
37878;BME280;23715;53.652;8.516;2022-10-16T04:53:10;101019.55;;;16.37;100.00
37878;BME280;23715;53.652;8.516;2022-10-16T04:58:10;101012.80;;;16.41;100.00
37878;BME280;23715;53.652;8.516;2022-10-16T05:03:11;101022.94;;;16.31;100.00
37878;BME280;23715;53.652;8.516;2022-10-16T05:08:14;101026.98;;;16.23;100.00
37878;BME280;23715;53.652;8.516;2022-10-16T05:13:14;101021.43;;;16.45;100.00
37878;BME280;23715;53.652;8.516;2022-10-16T05:18:15;101038.22;;;16.36;100.00
37878;BME280;23715;53.652;8.516;2022-10-16T05:23:16;101042.75;;;16.23;100.00
37878;BME280;23715;53.652;8.516;2022-10-16T05:28:16;101043.19;;;16.49;100.00
37878;BME280;23715;53.652;8.516;2022-10-16T05:33:17;101041.36;;;16.74;100.00
37878;BME280;23715;53.652;8.516;2022-10-16T05:38:18;101050.15;;;16.64;100.00
37878;BME280;23715;53.652;8.516;2022-10-16T05:43:19;101048.31;;;16.76;100.00
37878;BME280;23715;53.652;8.516;2022-10-16T05:48:20;101050.37;;;16.83;100.00
37878;BME280;23715;53.652;8.516;2022-10-16T05:53:21;101052.55;;;16.71;100.00
37878;BME280;23715;53.652;8.516;2022-10-16T05:58:24;101052.55;;;16.71;100.00
37878;BME280;23715;53.652;8.516;2022-10-16T06:03:25;101057.01;;;16.84;100.00
37878;BME280;23715;53.652;8.516;2022-10-16T06:08:26;101064.45;;;16.78;100.00
37878;BME280;23715;53.652;8.516;2022-10-16T06:13:26;101070.19;;;16.67;100.00
37878;BME280;23715;53.652;8.516;2022-10-16T06:18:27;101084.14;;;16.80;100.00
37878;BME280;23715;53.652;8.516;2022-10-16T06:23:28;101086.84;;;16.72;100.00
37878;BME280;23715;53.652;8.516;2022-10-16T06:28:29;101097.50;;;16.61;100.00
37878;BME280;23715;53.652;8.516;2022-10-16T06:33:29;101100.73;;;16.61;100.00
37878;BME280;23715;53.652;8.516;2022-10-16T06:38:29;101115.83;;;16.59;100.00
37878;BME280;23715;53.652;8.516;2022-10-16T06:43:30;101127.89;;;16.65;100.00
37878;BME280;23715;53.652;8.516;2022-10-16T06:48:36;101130.34;;;16.84;100.00
37878;BME280;23715;53.652;8.516;2022-10-16T06:53:38;101132.38;;;16.86;100.00
37878;BME280;23715;53.652;8.516;2022-10-16T06:58:39;101137.86;;;17.03;100.00
37878;BME280;23715;53.652;8.516;2022-10-16T07:03:40;101127.99;;;16.89;100.00
37878;BME280;23715;53.652;8.516;2022-10-16T07:08:43;101150.41;;;16.95;100.00
37878;BME280;23715;53.652;8.516;2022-10-16T07:13:44;101144.81;;;17.05;100.00
37878;BME280;23715;53.652;8.516;2022-10-16T07:18:46;101149.25;;;16.98;100.00
37878;BME280;23715;53.652;8.516;2022-10-16T07:23:51;101157.31;;;16.82;100.00
37878;BME280;23715;53.652;8.516;2022-10-16T07:28:52;101166.87;;;16.94;100.00
37878;BME280;23715;53.652;8.516;2022-10-16T07:33:52;101181.28;;;16.86;100.00
37878;BME280;23715;53.652;8.516;2022-10-16T07:38:53;101184.95;;;17.24;100.00
37878;BME280;23715;53.652;8.516;2022-10-16T07:43:54;101188.53;;;17.36;100.00
37878;BME280;23715;53.652;8.516;2022-10-16T07:48:56;101192.62;;;17.41;100.00
37878;BME280;23715;53.652;8.516;2022-10-16T07:53:56;101209.25;;;17.25;100.00
37878;BME280;23715;53.652;8.516;2022-10-16T07:59:03;101212.95;;;17.08;100.00
37878;BME280;23715;53.652;8.516;2022-10-16T08:03:59;101217.48;;;16.91;100.00
37878;BME280;23715;53.652;8.516;2022-10-16T08:09:00;101233.23;;;17.42;100.00
37878;BME280;23715;53.652;8.516;2022-10-16T08:14:00;101230.31;;;17.31;100.00
37878;BME280;23715;53.652;8.516;2022-10-16T08:19:01;101230.67;;;17.41;100.00
37878;BME280;23715;53.652;8.516;2022-10-16T08:24:01;101240.55;;;17.62;100.00
37878;BME280;23715;53.652;8.516;2022-10-16T08:29:01;101243.79;;;17.62;100.00
37878;BME280;23715;53.652;8.516;2022-10-16T08:34:02;101237.18;;;17.64;100.00
37878;BME280;23715;53.652;8.516;2022-10-16T08:39:01;101248.06;;;17.68;100.00
37878;BME280;23715;53.652;8.516;2022-10-16T08:44:27;101271.02;;;17.78;100.00
37878;BME280;23715;53.652;8.516;2022-10-16T08:49:26;101280.38;;;17.84;100.00
37878;BME280;23715;53.652;8.516;2022-10-16T08:54:37;101274.55;;;17.58;100.00
37878;BME280;23715;53.652;8.516;2022-10-16T08:59:41;101263.91;;;17.93;100.00
37878;BME280;23715;53.652;8.516;2022-10-16T09:05:00;101266.45;;;18.20;100.00
37878;BME280;23715;53.652;8.516;2022-10-16T09:10:08;101266.77;;;18.21;100.00
37878;BME280;23715;53.652;8.516;2022-10-16T09:15:33;101282.44;;;18.31;100.00
37878;BME280;23715;53.652;8.516;2022-10-16T09:20:51;101285.83;;;18.33;100.00
37878;BME280;23715;53.652;8.516;2022-10-16T09:25:51;101301.84;;;18.20;100.00
37878;BME280;23715;53.652;8.516;2022-10-16T09:30:53;101311.31;;;18.57;100.00
37878;BME280;23715;53.652;8.516;2022-10-16T09:35:56;101311.66;;;18.49;100.00
37878;BME280;23715;53.652;8.516;2022-10-16T09:40:59;101296.78;;;18.89;100.00
37878;BME280;23715;53.652;8.516;2022-10-16T09:46:05;101294.83;;;19.10;100.00
37878;BME280;23715;53.652;8.516;2022-10-16T09:51:15;101293.39;;;19.26;100.00
37878;BME280;23715;53.652;8.516;2022-10-16T09:56:11;101292.91;;;19.50;100.00
37878;BME280;23715;53.652;8.516;2022-10-16T10:01:14;101308.31;;;19.70;100.00
37878;BME280;23715;53.652;8.516;2022-10-16T10:06:26;101316.03;;;19.62;100.00
37878;BME280;23715;53.652;8.516;2022-10-16T10:11:44;101326.05;;;19.74;100.00
37878;BME280;23715;53.652;8.516;2022-10-16T10:16:44;101334.45;;;19.92;100.00
37878;BME280;23715;53.652;8.516;2022-10-16T10:21:44;101337.52;;;19.61;100.00
37878;BME280;23715;53.652;8.516;2022-10-16T10:26:51;101347.21;;;19.72;100.00
37878;BME280;23715;53.652;8.516;2022-10-16T10:37:06;101356.70;;;19.80;100.00
37878;BME280;23715;53.652;8.516;2022-10-16T10:48:11;101368.37;;;19.97;100.00
37878;BME280;23715;53.652;8.516;2022-10-16T10:52:43;101373.75;;;20.01;100.00
37878;BME280;23715;53.652;8.516;2022-10-16T11:03:05;101396.33;;;20.03;100.00
37878;BME280;23715;53.652;8.516;2022-10-16T11:08:07;101397.70;;;20.26;100.00
37878;BME280;23715;53.652;8.516;2022-10-16T11:13:20;101398.31;;;19.86;100.00
37878;BME280;23715;53.652;8.516;2022-10-16T11:18:27;101412.08;;;19.93;100.00
37878;BME280;23715;53.652;8.516;2022-10-16T11:23:31;101403.44;;;20.08;100.00
37878;BME280;23715;53.652;8.516;2022-10-16T11:28:48;101413.48;;;20.12;100.00
37878;BME280;23715;53.652;8.516;2022-10-16T11:49:40;101422.12;;;20.70;100.00
37878;BME280;23715;53.652;8.516;2022-10-16T11:55:09;101437.99;;;20.47;100.00
37878;BME280;23715;53.652;8.516;2022-10-16T12:00:09;101443.37;;;20.98;100.00
37878;BME280;23715;53.652;8.516;2022-10-16T12:10:32;101456.61;;;20.71;100.00
37878;BME280;23715;53.652;8.516;2022-10-16T12:15:34;101457.04;;;20.60;100.00
37878;BME280;23715;53.652;8.516;2022-10-16T12:20:34;101470.00;;;20.58;100.00
37878;BME280;23715;53.652;8.516;2022-10-16T12:25:40;101458.67;;;20.69;100.00
37878;BME280;23715;53.652;8.516;2022-10-16T12:30:51;101471.69;;;20.86;100.00
37878;BME280;23715;53.652;8.516;2022-10-16T12:35:46;101475.69;;;20.79;100.00
37878;BME280;23715;53.652;8.516;2022-10-16T12:41:01;101474.34;;;20.25;100.00
37878;BME280;23715;53.652;8.516;2022-10-16T12:51:33;101491.88;;;21.04;100.00
37878;BME280;23715;53.652;8.516;2022-10-16T13:01:52;101508.72;;;21.12;100.00
37878;BME280;23715;53.652;8.516;2022-10-16T13:07:15;101505.86;;;21.05;100.00
37878;BME280;23715;53.652;8.516;2022-10-16T13:17:45;101523.11;;;21.05;100.00
37878;BME280;23715;53.652;8.516;2022-10-16T13:22:54;101536.56;;;21.11;100.00
37878;BME280;23715;53.652;8.516;2022-10-16T13:33:10;101553.76;;;21.01;100.00
37878;BME280;23715;53.652;8.516;2022-10-16T13:38:24;101560.34;;;21.11;100.00
37878;BME280;23715;53.652;8.516;2022-10-16T13:43:26;101565.30;;;20.88;100.00
37878;BME280;23715;53.652;8.516;2022-10-16T13:48:26;101566.56;;;20.81;100.00
37878;BME280;23715;53.652;8.516;2022-10-16T13:53:33;101586.81;;;20.64;100.00
37878;BME280;23715;53.652;8.516;2022-10-16T13:58:29;101587.88;;;20.86;100.00
37878;BME280;23715;53.652;8.516;2022-10-16T14:03:29;101595.97;;;20.75;100.00
37878;BME280;23715;53.652;8.516;2022-10-16T14:08:31;101593.86;;;20.85;100.00
37878;BME280;23715;53.652;8.516;2022-10-16T14:13:39;101602.13;;;20.73;100.00
37878;BME280;23715;53.652;8.516;2022-10-16T14:18:40;101612.65;;;20.84;100.00
37878;BME280;23715;53.652;8.516;2022-10-16T14:23:42;101619.98;;;20.57;100.00
37878;BME280;23715;53.652;8.516;2022-10-16T14:28:43;101624.20;;;20.67;100.00
37878;BME280;23715;53.652;8.516;2022-10-16T14:33:44;101625.51;;;20.80;100.00
37878;BME280;23715;53.652;8.516;2022-10-16T14:39:06;101631.23;;;20.93;100.00
37878;BME280;23715;53.652;8.516;2022-10-16T14:44:09;101641.96;;;20.99;100.00
37878;BME280;23715;53.652;8.516;2022-10-16T14:49:15;101650.45;;;21.08;100.00
37878;BME280;23715;53.652;8.516;2022-10-16T14:54:16;101653.83;;;20.87;100.00
37878;BME280;23715;53.652;8.516;2022-10-16T14:59:28;101654.62;;;21.23;100.00
37878;BME280;23715;53.652;8.516;2022-10-16T15:04:29;101655.56;;;21.57;100.00
37878;BME280;23715;53.652;8.516;2022-10-16T15:09:28;101663.11;;;21.51;100.00
37878;BME280;23715;53.652;8.516;2022-10-16T15:14:30;101666.34;;;21.55;100.00
37878;BME280;23715;53.652;8.516;2022-10-16T15:19:30;101667.14;;;21.17;100.00
37878;BME280;23715;53.652;8.516;2022-10-16T15:24:30;101680.53;;;21.08;100.00
37878;BME280;23715;53.652;8.516;2022-10-16T15:29:31;101698.19;;;20.62;100.00
37878;BME280;23715;53.652;8.516;2022-10-16T15:34:31;101697.13;;;20.71;100.00
37878;BME280;23715;53.652;8.516;2022-10-16T15:39:32;101708.11;;;20.51;100.00
37878;BME280;23715;53.652;8.516;2022-10-16T15:44:32;101716.39;;;20.22;100.00
37878;BME280;23715;53.652;8.516;2022-10-16T15:49:33;101720.66;;;20.20;100.00
37878;BME280;23715;53.652;8.516;2022-10-16T15:54:34;101710.79;;;20.15;100.00
37878;BME280;23715;53.652;8.516;2022-10-16T15:59:34;101706.22;;;20.03;100.00
37878;BME280;23715;53.652;8.516;2022-10-16T16:04:34;101716.09;;;20.04;100.00
37878;BME280;23715;53.652;8.516;2022-10-16T16:09:37;101721.41;;;19.98;100.00
37878;BME280;23715;53.652;8.516;2022-10-16T16:14:37;101737.95;;;19.84;100.00
37878;BME280;23715;53.652;8.516;2022-10-16T16:19:37;101734.87;;;19.95;100.00
37878;BME280;23715;53.652;8.516;2022-10-16T16:24:37;101756.00;;;19.68;100.00
37878;BME280;23715;53.652;8.516;2022-10-16T16:29:38;101761.10;;;19.51;100.00
37878;BME280;23715;53.652;8.516;2022-10-16T16:34:37;101767.05;;;19.38;100.00
37878;BME280;23715;53.652;8.516;2022-10-16T16:39:38;101771.28;;;19.24;100.00
37878;BME280;23715;53.652;8.516;2022-10-16T16:44:38;101781.53;;;19.39;100.00
37878;BME280;23715;53.652;8.516;2022-10-16T16:49:39;101798.56;;;19.33;100.00
37878;BME280;23715;53.652;8.516;2022-10-16T16:54:39;101802.55;;;18.96;100.00
37878;BME280;23715;53.652;8.516;2022-10-16T16:59:40;101812.27;;;19.02;100.00
37878;BME280;23715;53.652;8.516;2022-10-16T17:04:41;101808.32;;;18.97;100.00
37878;BME280;23715;53.652;8.516;2022-10-16T17:09:41;101827.34;;;18.80;100.00
37878;BME280;23715;53.652;8.516;2022-10-16T17:14:42;101823.76;;;18.31;100.00
37878;BME280;23715;53.652;8.516;2022-10-16T17:19:42;101839.12;;;18.37;100.00
37878;BME280;23715;53.652;8.516;2022-10-16T17:24:42;101847.83;;;18.40;100.00
37878;BME280;23715;53.652;8.516;2022-10-16T17:29:42;101854.14;;;18.23;100.00
37878;BME280;23715;53.652;8.516;2022-10-16T17:34:43;101868.13;;;17.88;100.00
37878;BME280;23715;53.652;8.516;2022-10-16T17:39:43;101886.01;;;17.76;100.00
37878;BME280;23715;53.652;8.516;2022-10-16T17:44:44;101890.71;;;17.70;100.00
37878;BME280;23715;53.652;8.516;2022-10-16T17:49:44;101891.81;;;17.64;100.00
37878;BME280;23715;53.652;8.516;2022-10-16T17:54:45;101895.05;;;17.63;100.00
37878;BME280;23715;53.652;8.516;2022-10-16T17:59:45;101901.55;;;17.39;100.00
37878;BME280;23715;53.652;8.516;2022-10-16T18:04:46;101917.16;;;16.99;100.00
37878;BME280;23715;53.652;8.516;2022-10-16T18:09:45;101914.11;;;16.98;100.00
37878;BME280;23715;53.652;8.516;2022-10-16T18:14:46;101934.18;;;16.58;100.00
37878;BME280;23715;53.652;8.516;2022-10-16T18:19:47;101934.81;;;16.46;100.00
37878;BME280;23715;53.652;8.516;2022-10-16T18:24:46;101941.11;;;16.56;100.00
37878;BME280;23715;53.652;8.516;2022-10-16T18:29:47;101943.48;;;16.26;100.00
37878;BME280;23715;53.652;8.516;2022-10-16T18:34:47;101940.02;;;16.53;100.00
37878;BME280;23715;53.652;8.516;2022-10-16T18:39:47;101948.09;;;16.59;100.00
37878;BME280;23715;53.652;8.516;2022-10-16T18:44:48;101944.11;;;16.44;100.00
37878;BME280;23715;53.652;8.516;2022-10-16T18:49:49;101956.23;;;16.10;100.00
37878;BME280;23715;53.652;8.516;2022-10-16T18:54:53;101965.83;;;16.14;100.00
37878;BME280;23715;53.652;8.516;2022-10-16T18:59:52;101985.38;;;16.18;100.00
37878;BME280;23715;53.652;8.516;2022-10-16T19:04:52;101979.59;;;16.07;100.00
37878;BME280;23715;53.652;8.516;2022-10-16T19:09:53;101977.70;;;15.88;100.00
37878;BME280;23715;53.652;8.516;2022-10-16T19:14:54;101983.97;;;15.89;100.00
37878;BME280;23715;53.652;8.516;2022-10-16T19:19:55;101995.20;;;15.90;100.00
37878;BME280;23715;53.652;8.516;2022-10-16T19:24:57;101990.08;;;16.06;100.00
37878;BME280;23715;53.652;8.516;2022-10-16T19:29:57;101990.91;;;15.97;100.00
37878;BME280;23715;53.652;8.516;2022-10-16T19:34:57;101984.82;;;15.89;100.00
37878;BME280;23715;53.652;8.516;2022-10-16T19:39:58;101982.25;;;16.23;100.00
37878;BME280;23715;53.652;8.516;2022-10-16T19:44:58;101989.69;;;16.30;100.00
37878;BME280;23715;53.652;8.516;2022-10-16T19:49:58;102009.26;;;15.99;100.00
37878;BME280;23715;53.652;8.516;2022-10-16T19:54:59;101996.34;;;16.07;100.00
37878;BME280;23715;53.652;8.516;2022-10-16T19:59:59;101996.67;;;16.23;100.00
37878;BME280;23715;53.652;8.516;2022-10-16T20:04:59;102004.69;;;15.74;100.00
37878;BME280;23715;53.652;8.516;2022-10-16T20:10:00;102006.39;;;15.91;100.00
37878;BME280;23715;53.652;8.516;2022-10-16T20:15:01;102019.05;;;15.96;100.00
37878;BME280;23715;53.652;8.516;2022-10-16T20:20:02;102016.58;;;16.18;100.00
37878;BME280;23715;53.652;8.516;2022-10-16T20:25:02;102001.18;;;16.18;100.00
37878;BME280;23715;53.652;8.516;2022-10-16T20:30:07;101999.64;;;16.10;100.00
37878;BME280;23715;53.652;8.516;2022-10-16T20:35:12;102009.66;;;15.85;100.00
37878;BME280;23715;53.652;8.516;2022-10-16T20:40:13;102012.56;;;15.77;100.00
37878;BME280;23715;53.652;8.516;2022-10-16T20:45:13;102037.91;;;15.97;100.00
37878;BME280;23715;53.652;8.516;2022-10-16T20:50:13;102039.26;;;15.82;100.00
37878;BME280;23715;53.652;8.516;2022-10-16T20:55:14;102055.06;;;15.83;100.00
37878;BME280;23715;53.652;8.516;2022-10-16T21:00:16;102062.72;;;15.93;100.00
37878;BME280;23715;53.652;8.516;2022-10-16T21:05:16;102078.49;;;15.93;100.00
37878;BME280;23715;53.652;8.516;2022-10-16T21:10:16;102090.48;;;15.91;100.00
37878;BME280;23715;53.652;8.516;2022-10-16T21:15:18;102083.16;;;15.81;100.00
37878;BME280;23715;53.652;8.516;2022-10-16T21:20:17;102083.73;;;16.00;100.00
37878;BME280;23715;53.652;8.516;2022-10-16T21:25:17;102077.43;;;15.90;100.00
37878;BME280;23715;53.652;8.516;2022-10-16T21:30:18;102064.02;;;15.73;100.00
37878;BME280;23715;53.652;8.516;2022-10-16T21:35:18;102067.37;;;15.66;100.00
37878;BME280;23715;53.652;8.516;2022-10-16T21:40:19;102071.63;;;15.89;100.00
37878;BME280;23715;53.652;8.516;2022-10-16T21:45:19;102053.63;;;16.04;100.00
37878;BME280;23715;53.652;8.516;2022-10-16T21:50:19;102053.02;;;16.15;100.00
37878;BME280;23715;53.652;8.516;2022-10-16T21:55:20;102042.06;;;16.02;100.00
37878;BME280;23715;53.652;8.516;2022-10-16T22:00:20;102054.50;;;15.89;100.00
37878;BME280;23715;53.652;8.516;2022-10-16T22:05:20;102043.52;;;16.15;100.00
37878;BME280;23715;53.652;8.516;2022-10-16T22:10:20;102028.84;;;16.28;100.00
37878;BME280;23715;53.652;8.516;2022-10-16T22:15:21;102020.39;;;16.31;100.00
37878;BME280;23715;53.652;8.516;2022-10-16T22:20:21;102029.11;;;16.25;100.00
37878;BME280;23715;53.652;8.516;2022-10-16T22:25:21;102024.39;;;16.27;100.00
37878;BME280;23715;53.652;8.516;2022-10-16T22:30:22;102027.23;;;16.15;100.00
37878;BME280;23715;53.652;8.516;2022-10-16T22:35:22;102023.68;;;16.25;100.00
37878;BME280;23715;53.652;8.516;2022-10-16T22:40:22;102017.81;;;16.29;100.00
37878;BME280;23715;53.652;8.516;2022-10-16T22:45:23;102006.11;;;16.29;100.00
37878;BME280;23715;53.652;8.516;2022-10-16T22:50:23;102034.39;;;16.16;100.00
37878;BME280;23715;53.652;8.516;2022-10-16T22:55:24;102015.80;;;16.22;100.00
37878;BME280;23715;53.652;8.516;2022-10-16T23:00:23;101997.04;;;16.14;100.00
37878;BME280;23715;53.652;8.516;2022-10-16T23:05:24;101993.48;;;15.98;100.00
37878;BME280;23715;53.652;8.516;2022-10-16T23:10:23;101988.95;;;15.84;100.00
37878;BME280;23715;53.652;8.516;2022-10-16T23:15:25;102003.45;;;15.78;100.00
37878;BME280;23715;53.652;8.516;2022-10-16T23:20:26;102012.00;;;15.84;100.00
37878;BME280;23715;53.652;8.516;2022-10-16T23:25:26;101983.27;;;15.96;100.00
37878;BME280;23715;53.652;8.516;2022-10-16T23:30:26;101996.02;;;15.80;100.00
37878;BME280;23715;53.652;8.516;2022-10-16T23:35:27;101993.70;;;16.01;100.00
37878;BME280;23715;53.652;8.516;2022-10-16T23:40:27;102002.59;;;16.03;100.00
37878;BME280;23715;53.652;8.516;2022-10-16T23:45:28;102014.42;;;16.02;100.00
37878;BME280;23715;53.652;8.516;2022-10-16T23:50:28;102008.80;;;16.09;100.00
37878;BME280;23715;53.652;8.516;2022-10-16T23:55:28;102005.91;;;16.26;100.00
